Time;durP1;ratioP1;P1;durP2;ratioP2;P2;SDS_P1;SDS_P2;PMS_P1;PMS_P2;Temp;Humidity;BMP_temperature;BMP_pressure;BME280_temperature;BME280_humidity;BME280_pressure;Samples;Min_cycle;Max_cycle;Signal;HPM_P1;HPM_P2
2022/09/15 00:01:47;;;;;;;24.30;17.27;;;16.00;99.90;;;;;;5067444;28;20294;-32
2022/09/15 00:04:17;;;;;;;22.73;16.80;;;15.90;99.90;;;;;;5047969;28;20216;-32
2022/09/15 00:06:46;;;;;;;22.40;16.07;;;15.90;99.90;;;;;;5075689;28;20225;-31
2022/09/15 00:09:13;;;;;;;21.67;15.77;;;15.90;99.90;;;;;;5064037;28;20743;-33
2022/09/15 00:11:41;;;;;;;23.30;15.03;;;15.90;99.90;;;;;;5069885;28;20716;-31
2022/09/15 00:14:10;;;;;;;19.80;15.10;;;15.90;99.90;;;;;;5074825;28;20229;-32
2022/09/15 00:16:40;;;;;;;21.83;14.83;;;15.80;99.90;;;;;;5086344;28;20676;-32
2022/09/15 00:19:07;;;;;;;19.87;15.33;;;15.80;99.90;;;;;;5086593;28;20198;-32
2022/09/15 00:21:39;;;;;;;22.07;15.87;;;15.80;99.90;;;;;;5078446;28;20231;-32
2022/09/15 00:24:10;;;;;;;20.07;15.23;;;15.80;99.90;;;;;;5050453;28;20196;-32
2022/09/15 00:26:44;;;;;;;22.13;15.30;;;15.70;99.90;;;;;;5067454;28;20211;-32
2022/09/15 00:29:14;;;;;;;20.37;16.13;;;15.70;99.90;;;;;;5067254;28;20199;-32
2022/09/15 00:31:43;;;;;;;23.47;16.33;;;15.70;99.90;;;;;;5065083;28;20227;-32
2022/09/15 00:34:12;;;;;;;21.87;15.73;;;15.70;99.90;;;;;;5066687;28;20306;-32
2022/09/15 00:36:39;;;;;;;22.57;15.30;;;15.70;99.90;;;;;;5066966;28;20218;-32
2022/09/15 00:39:06;;;;;;;20.27;15.50;;;15.70;99.90;;;;;;5069726;28;20271;-32
2022/09/15 00:41:34;;;;;;;20.70;15.30;;;15.70;99.90;;;;;;5073640;28;20601;-31
2022/09/15 00:44:25;;;;;;;19.67;14.10;;;15.60;99.90;;;;;;5047123;28;20257;-32
2022/09/15 00:46:56;;;;;;;22.07;14.67;;;15.60;99.90;;;;;;5046573;28;20196;-33
2022/09/15 00:49:44;;;;;;;21.73;14.90;;;15.60;99.90;;;;;;5046484;28;20236;-32
2022/09/15 00:52:18;;;;;;;21.07;15.37;;;15.60;99.90;;;;;;5028793;28;20216;-32
2022/09/15 00:54:58;;;;;;;19.47;14.37;;;15.60;99.90;;;;;;5030323;28;20214;-32
2022/09/15 00:57:32;;;;;;;22.50;15.27;;;15.60;99.90;;;;;;5047775;28;20215;-32
2022/09/15 01:00:08;;;;;;;20.80;14.23;;;15.50;99.90;;;;;;5061043;28;20308;-32
2022/09/15 01:02:36;;;;;;;21.00;14.67;;;15.50;99.90;;;;;;5062750;28;20282;-32
2022/09/15 01:05:07;;;;;;;25.00;15.67;;;15.50;99.90;;;;;;5066389;28;20199;-32
2022/09/15 01:07:55;;;;;;;20.33;15.00;;;15.50;99.90;;;;;;5046849;28;20228;-32
2022/09/15 01:10:26;;;;;;;19.57;14.50;;;15.50;99.90;;;;;;5047778;28;20207;-32
2022/09/15 01:12:57;;;;;;;20.30;15.27;;;15.50;99.90;;;;;;5049136;28;20227;-32
2022/09/15 01:15:37;;;;;;;19.17;15.07;;;15.50;99.90;;;;;;5049307;28;20188;-32
2022/09/15 01:18:17;;;;;;;20.47;15.40;;;15.50;99.90;;;;;;5055776;28;20621;-32
2022/09/15 01:21:09;;;;;;;18.87;14.43;;;15.50;99.90;;;;;;5053468;28;20326;-32
2022/09/15 01:24:13;;;;;;;21.20;14.50;;;15.40;99.90;;;;;;5048854;28;20200;-32
2022/09/15 01:27:23;;;;;;;18.90;14.97;;;15.40;99.90;;;;;;5049152;28;20623;-32
2022/09/15 01:30:08;;;;;;;20.27;14.17;;;15.40;99.90;;;;;;5053193;28;20500;-32
2022/09/15 01:35:53;;;;;;;21.63;15.07;;;15.40;99.90;;;;;;5045986;28;20278;-32
2022/09/15 01:38:36;;;;;;;21.43;14.93;;;15.30;99.90;;;;;;5045380;28;20565;-32
2022/09/15 01:41:28;;;;;;;20.40;14.77;;;15.30;99.90;;;;;;5046690;28;20254;-32
2022/09/15 01:44:04;;;;;;;19.80;14.00;;;15.30;99.90;;;;;;5046575;28;20303;-32
2022/09/15 01:46:45;;;;;;;19.70;14.87;;;15.30;99.90;;;;;;5047048;28;20212;-32
2022/09/15 01:49:24;;;;;;;20.13;14.83;;;15.30;99.90;;;;;;5049895;28;20210;-32
2022/09/15 01:51:53;;;;;;;19.50;14.93;;;15.20;99.90;;;;;;5066446;28;20220;-32
2022/09/15 01:54:27;;;;;;;21.23;14.47;;;15.20;99.90;;;;;;5064962;28;20202;-32
2022/09/15 01:56:55;;;;;;;19.67;14.33;;;15.20;99.90;;;;;;5066232;28;20200;-32
2022/09/15 01:59:23;;;;;;;19.23;14.10;;;15.20;99.90;;;;;;5066323;28;20235;-32
2022/09/15 02:02:14;;;;;;;19.47;14.33;;;15.20;99.90;;;;;;5061452;28;20204;-32
2022/09/15 02:04:56;;;;;;;18.53;14.07;;;15.20;99.90;;;;;;5047407;28;20253;-32
2022/09/15 02:08:07;;;;;;;20.13;14.17;;;15.10;99.90;;;;;;5050360;28;20227;-32
2022/09/15 02:10:50;;;;;;;18.37;13.77;;;15.10;99.90;;;;;;5049162;28;20663;-32
2022/09/15 02:13:34;;;;;;;17.87;13.93;;;15.10;99.90;;;;;;5056257;28;20215;-32
2022/09/15 02:16:03;;;;;;;17.73;14.23;;;15.20;99.90;;;;;;5089830;28;20206;-32
2022/09/15 02:18:46;;;;;;;21.93;14.10;;;15.10;99.90;;;;;;5089107;28;20199;-32
2022/09/15 02:21:30;;;;;;;19.27;14.43;;;15.10;99.90;;;;;;5071481;28;20232;-32
2022/09/15 02:24:04;;;;;;;17.33;13.00;;;15.20;99.90;;;;;;5048688;28;20212;-32
2022/09/15 02:26:36;;;;;;;18.00;13.97;;;15.20;99.90;;;;;;5050431;28;20337;-32
2022/09/15 02:29:15;;;;;;;20.43;14.73;;;15.20;99.90;;;;;;5049434;28;20215;-32
2022/09/15 02:31:48;;;;;;;16.60;12.77;;;15.20;99.90;;;;;;5049700;28;20204;-32
2022/09/15 02:34:20;;;;;;;18.30;13.27;;;15.20;99.90;;;;;;5049026;28;20262;-32
2022/09/15 02:36:51;;;;;;;18.40;13.47;;;15.20;99.90;;;;;;5049211;28;20204;-32
2022/09/15 02:39:23;;;;;;;17.50;13.00;;;15.30;99.90;;;;;;5065890;28;20619;-32
2022/09/15 02:41:56;;;;;;;16.63;12.87;;;15.30;99.90;;;;;;5051745;28;20278;-32
2022/09/15 02:44:23;;;;;;;15.33;12.53;;;15.30;99.90;;;;;;5049361;28;20197;-32
2022/09/15 02:46:51;;;;;;;15.90;12.60;;;15.30;99.90;;;;;;5048774;28;20219;-32
2022/09/15 02:49:18;;;;;;;16.03;12.00;;;15.30;99.90;;;;;;5048426;28;20250;-32
2022/09/15 02:51:48;;;;;;;16.17;12.10;;;15.30;99.90;;;;;;5049322;28;20212;-32
2022/09/15 02:54:20;;;;;;;14.40;11.20;;;15.30;99.90;;;;;;5049601;28;20282;-32
2022/09/15 02:56:52;;;;;;;14.83;11.97;;;15.30;99.90;;;;;;5049295;28;20210;-32
2022/09/15 02:59:19;;;;;;;16.03;11.90;;;15.30;99.90;;;;;;5049119;28;20233;-32
2022/09/15 03:01:46;;;;;;;17.97;12.00;;;15.30;99.90;;;;;;5048264;28;20565;-32
2022/09/15 03:04:14;;;;;;;16.53;11.83;;;15.30;99.90;;;;;;5058448;28;20360;-32
2022/09/15 03:06:42;;;;;;;15.03;11.57;;;15.40;99.90;;;;;;5050743;28;20713;-31
2022/09/15 03:09:09;;;;;;;15.07;11.63;;;15.40;99.90;;;;;;5054956;28;20228;-31
2022/09/15 03:11:36;;;;;;;14.93;11.73;;;15.40;99.90;;;;;;5049288;28;20220;-32
2022/09/15 03:14:08;;;;;;;16.40;12.70;;;15.40;99.90;;;;;;5062226;28;20323;-32
2022/09/15 03:16:35;;;;;;;14.03;11.63;;;15.40;99.90;;;;;;5048791;28;20224;-32
2022/09/15 03:19:05;;;;;;;14.13;11.27;;;15.40;99.90;;;;;;5048048;28;20197;-32
2022/09/15 03:21:32;;;;;;;15.47;10.87;;;15.40;99.90;;;;;;5048603;28;20530;-31
2022/09/15 03:24:01;;;;;;;16.00;11.83;;;15.40;99.90;;;;;;5048415;28;20200;-32
2022/09/15 03:26:29;;;;;;;17.60;11.90;;;15.40;99.90;;;;;;5048525;28;20261;-33
2022/09/15 03:28:57;;;;;;;15.03;10.60;;;15.40;99.90;;;;;;5054756;28;20325;-32
2022/09/15 03:31:26;;;;;;;16.37;10.17;;;15.50;99.90;;;;;;5063255;28;20235;-32
2022/09/15 03:33:54;;;;;;;16.80;11.03;;;15.50;99.90;;;;;;5059397;28;20638;-32
2022/09/15 03:36:26;;;;;;;13.77;10.80;;;15.50;99.90;;;;;;5048386;28;20234;-32
2022/09/15 03:38:57;;;;;;;14.43;9.87;;;15.50;99.90;;;;;;5048239;28;20201;-32
2022/09/15 03:41:26;;;;;;;12.80;10.50;;;15.50;99.90;;;;;;5047919;28;20589;-32
2022/09/15 03:43:54;;;;;;;13.80;10.83;;;15.50;99.90;;;;;;5047863;28;20204;-32
2022/09/15 03:46:23;;;;;;;14.83;10.60;;;15.50;99.90;;;;;;5037109;28;20239;-32
2022/09/15 03:48:53;;;;;;;13.27;10.57;;;15.50;99.90;;;;;;5047631;28;20216;-32
2022/09/15 03:51:22;;;;;;;13.43;10.50;;;15.50;99.90;;;;;;5048010;28;20638;-32
2022/09/15 03:53:52;;;;;;;12.57;9.87;;;15.50;99.90;;;;;;5047535;28;20227;-32
2022/09/15 03:56:21;;;;;;;12.83;10.20;;;15.50;99.90;;;;;;5048061;28;20192;-32
2022/09/15 03:58:49;;;;;;;13.40;10.60;;;15.50;99.90;;;;;;5047326;28;20667;-32
2022/09/15 04:01:17;;;;;;;15.20;10.17;;;15.50;99.90;;;;;;5047993;28;20213;-34
2022/09/15 04:03:46;;;;;;;14.13;10.33;;;15.50;99.90;;;;;;5047982;28;20550;-34
2022/09/15 04:06:19;;;;;;;15.33;10.50;;;15.50;99.90;;;;;;5058086;28;20250;-34
2022/09/15 04:08:50;;;;;;;14.27;10.03;;;15.50;99.90;;;;;;5057114;28;20702;-33
2022/09/15 04:11:21;;;;;;;13.43;10.13;;;15.50;99.90;;;;;;5047663;28;20295;-32
2022/09/15 04:13:54;;;;;;;14.83;10.23;;;15.50;99.90;;;;;;5064140;28;20226;-32
2022/09/15 04:16:26;;;;;;;13.43;9.70;;;15.50;99.90;;;;;;5087835;28;20199;-32
2022/09/15 04:18:54;;;;;;;13.40;10.07;;;15.50;99.90;;;;;;5068679;28;20217;-32
2022/09/15 04:21:24;;;;;;;13.73;10.40;;;15.50;99.90;;;;;;5050279;28;20565;-33
2022/09/15 04:23:53;;;;;;;12.53;10.23;;;15.50;99.90;;;;;;5064473;28;20215;-32
2022/09/15 04:26:32;;;;;;;14.43;10.80;;;15.60;99.90;;;;;;5067216;28;20208;-32
2022/09/15 04:29:01;;;;;;;14.73;11.17;;;15.60;99.90;;;;;;5066468;28;20227;-32
2022/09/15 04:31:35;;;;;;;13.63;11.57;;;15.50;99.90;;;;;;5058715;28;20679;-32
2022/09/15 04:34:09;;;;;;;16.50;11.20;;;15.60;99.90;;;;;;5046133;28;20235;-32
2022/09/15 04:36:36;;;;;;;14.53;11.00;;;15.60;99.90;;;;;;5050837;28;20207;-32
2022/09/15 04:39:06;;;;;;;14.40;11.30;;;15.60;99.90;;;;;;5055898;28;20200;-33
2022/09/15 04:41:38;;;;;;;16.27;12.07;;;15.60;99.90;;;;;;5063690;28;20199;-33
2022/09/15 04:44:07;;;;;;;15.37;12.10;;;15.60;99.90;;;;;;5067270;28;20219;-33
2022/09/15 04:46:34;;;;;;;16.00;12.60;;;15.60;99.90;;;;;;5067495;28;20199;-33
2022/09/15 04:49:04;;;;;;;16.07;11.00;;;15.60;99.90;;;;;;5066337;28;20204;-33
2022/09/15 04:51:36;;;;;;;16.27;12.37;;;15.60;99.90;;;;;;5066939;28;20195;-33
2022/09/15 04:54:03;;;;;;;13.60;10.67;;;15.70;99.90;;;;;;5058656;28;20305;-33
2022/09/15 04:56:33;;;;;;;14.90;11.50;;;15.60;99.90;;;;;;5047257;28;20228;-33
2022/09/15 04:59:00;;;;;;;14.97;12.27;;;15.60;99.90;;;;;;5060407;28;20996;-33
2022/09/15 05:01:34;;;;;;;18.20;12.60;;;15.60;99.90;;;;;;5046653;28;20199;-34
2022/09/15 05:04:03;;;;;;;16.67;12.13;;;15.60;99.90;;;;;;5049338;28;20219;-33
2022/09/15 05:06:31;;;;;;;16.50;12.00;;;15.60;99.90;;;;;;5051511;28;20204;-33
2022/09/15 05:09:01;;;;;;;16.03;12.23;;;15.60;99.90;;;;;;5047499;28;20671;-33
2022/09/15 05:11:35;;;;;;;14.10;10.90;;;15.50;99.90;;;;;;5052662;28;20673;-33
2022/09/15 05:14:05;;;;;;;16.47;11.73;;;15.50;99.90;;;;;;5050632;28;20228;-32
2022/09/15 05:16:39;;;;;;;18.07;11.07;;;15.50;99.90;;;;;;5050928;28;20248;-32
2022/09/15 05:19:11;;;;;;;15.53;10.90;;;15.50;99.90;;;;;;5050436;28;20211;-33
2022/09/15 05:21:39;;;;;;;15.60;11.20;;;15.50;99.90;;;;;;5047849;28;20212;-33
2022/09/15 05:24:06;;;;;;;18.33;11.23;;;15.50;99.90;;;;;;5056133;28;20207;-33
2022/09/15 05:26:40;;;;;;;17.80;12.67;;;15.50;99.90;;;;;;5063184;28;20678;-33
2022/09/15 05:29:07;;;;;;;18.87;13.10;;;15.50;99.90;;;;;;5062760;28;20214;-33
2022/09/15 05:31:38;;;;;;;19.13;12.20;;;15.50;99.90;;;;;;5055430;28;20220;-33
2022/09/15 05:34:06;;;;;;;17.63;13.50;;;15.40;99.90;;;;;;5057894;28;20233;-33
2022/09/15 05:36:33;;;;;;;18.83;12.10;;;15.40;99.90;;;;;;5048809;28;20196;-33
2022/09/15 05:39:03;;;;;;;17.77;12.63;;;15.40;99.90;;;;;;5037762;28;20366;-33
2022/09/15 05:41:32;;;;;;;19.87;12.77;;;15.40;99.90;;;;;;5053538;28;20254;-34
2022/09/15 05:43:59;;;;;;;16.07;12.03;;;15.40;99.90;;;;;;5057821;28;20203;-34
2022/09/15 05:46:29;;;;;;;17.93;12.53;;;15.40;99.90;;;;;;5058953;28;20259;-33
2022/09/15 05:48:57;;;;;;;15.93;11.33;;;15.40;99.90;;;;;;5057683;28;20262;-33
2022/09/15 05:51:29;;;;;;;16.10;12.33;;;15.30;99.90;;;;;;5050309;28;20583;-33
2022/09/15 05:53:58;;;;;;;15.30;11.67;;;15.30;99.90;;;;;;5050170;28;20629;-34
2022/09/15 05:56:31;;;;;;;16.57;11.93;;;15.30;99.90;;;;;;5049865;28;20294;-34
2022/09/15 05:59:00;;;;;;;17.97;12.30;;;15.30;99.90;;;;;;5053660;28;20220;-34
2022/09/15 06:01:31;;;;;;;18.27;12.17;;;15.30;99.90;;;;;;5055855;28;20208;-34
2022/09/15 06:04:03;;;;;;;19.07;12.97;;;15.30;99.90;;;;;;5052973;28;20208;-34
2022/09/15 06:06:37;;;;;;;20.80;12.23;;;15.30;99.90;;;;;;5044817;28;20645;-34
2022/09/15 06:09:05;;;;;;;14.97;11.97;;;15.40;99.90;;;;;;5052198;28;20246;-34
2022/09/15 06:11:37;;;;;;;16.77;13.27;;;15.40;99.90;;;;;;5056902;28;20210;-34
2022/09/15 06:14:04;;;;;;;21.60;13.83;;;15.40;99.90;;;;;;5058575;28;20596;-33
2022/09/15 06:16:33;;;;;;;18.55;13.77;;;15.50;99.90;;;;;;5060332;28;20415;-34
2022/09/15 06:19:01;;;;;;;17.67;12.73;;;15.70;99.90;;;;;;5062349;28;20226;-34
2022/09/15 06:21:32;;;;;;;21.13;13.60;;;15.70;99.90;;;;;;5050604;28;20200;-34
2022/09/15 06:24:07;;;;;;;20.00;12.30;;;15.70;99.90;;;;;;5047804;28;20257;-33
2022/09/15 06:26:34;;;;;;;16.40;13.80;;;15.70;99.90;;;;;;5063066;28;20402;-33
2022/09/15 06:29:04;;;;;;;15.90;13.50;;;15.90;99.90;;;;;;5057075;28;20223;-33
2022/09/15 06:31:36;;;;;;;19.60;12.03;;;15.90;99.90;;;;;;5049597;28;20812;-33
2022/09/15 06:34:04;;;;;;;17.33;12.30;;;15.90;99.90;;;;;;5057930;28;20327;-33
2022/09/15 06:36:38;;;;;;;18.20;13.40;;;15.90;99.90;;;;;;5055529;28;20253;-33
2022/09/15 06:39:07;;;;;;;17.80;12.73;;;15.90;99.90;;;;;;5057209;28;20215;-33
2022/09/15 06:41:37;;;;;;;21.13;13.37;;;15.90;99.90;;;;;;5063629;28;20844;-33
2022/09/15 06:44:24;;;;;;;21.50;14.10;;;15.80;99.90;;;;;;5060955;28;20207;-33
2022/09/15 06:46:58;;;;;;;21.83;13.67;;;15.80;99.90;;;;;;5057048;28;20258;-33
2022/09/15 06:49:27;;;;;;;22.13;13.87;;;15.80;99.90;;;;;;5048739;28;20240;-34
2022/09/15 06:51:55;;;;;;;16.87;14.10;;;15.90;99.90;;;;;;5059624;28;20824;-33
2022/09/15 06:54:24;;;;;;;21.23;13.17;;;15.90;99.90;;;;;;5061729;28;20208;-34
2022/09/15 06:56:56;;;;;;;18.80;13.27;;;15.90;99.90;;;;;;5054926;28;20200;-34
2022/09/15 06:59:23;;;;;;;35.40;15.73;;;15.90;99.90;;;;;;5067700;28;20251;-34
2022/09/15 07:01:53;;;;;;;30.67;15.20;;;16.00;99.90;;;;;;5055371;28;20577;-34
2022/09/15 07:04:21;;;;;;;32.27;16.13;;;16.00;99.90;;;;;;5064105;28;20210;-33
2022/09/15 07:06:49;;;;;;;18.40;13.90;;;16.00;99.90;;;;;;5052900;28;20208;-33
2022/09/15 07:09:16;;;;;;;18.93;13.43;;;16.10;99.90;;;;;;5031406;28;20224;-33
2022/09/15 07:11:46;;;;;;;27.17;13.97;;;16.10;99.90;;;;;;5056011;28;20206;-33
2022/09/15 07:14:15;;;;;;;23.50;14.53;;;16.20;99.90;;;;;;5079965;28;20231;-33
2022/09/15 07:16:44;;;;;;;19.10;14.20;;;16.20;99.90;;;;;;5057199;28;20219;-33
2022/09/15 07:19:14;;;;;;;20.50;13.57;;;16.30;99.90;;;;;;5047789;28;20824;-33
2022/09/15 07:21:41;;;;;;;21.30;14.07;;;16.40;99.90;;;;;;5047487;28;20197;-33
2022/09/15 07:24:11;;;;;;;24.07;14.93;;;16.40;99.90;;;;;;5052178;28;20730;-33
2022/09/15 07:26:39;;;;;;;24.30;14.97;;;16.50;99.90;;;;;;5054218;28;20209;-34
2022/09/15 07:29:06;;;;;;;20.97;14.97;;;16.60;99.90;;;;;;5058982;28;20210;-34
2022/09/15 07:31:42;;;;;;;21.33;14.63;;;16.60;99.90;;;;;;5050907;28;20757;-33
2022/09/15 07:34:12;;;;;;;19.87;14.40;;;16.70;99.90;;;;;;5050457;28;20238;-34
2022/09/15 07:36:39;;;;;;;22.20;14.63;;;16.80;99.90;;;;;;5058534;28;20202;-33
2022/09/15 07:39:06;;;;;;;23.40;15.00;;;16.90;99.90;;;;;;5052122;28;20223;-33
2022/09/15 07:41:34;;;;;;;18.77;14.97;;;16.90;99.90;;;;;;5060342;28;20315;-33
2022/09/15 07:44:05;;;;;;;20.50;15.23;;;17.00;99.90;;;;;;5046208;28;20722;-33
2022/09/15 07:46:35;;;;;;;20.27;15.03;;;17.10;99.90;;;;;;5053374;28;20204;-33
2022/09/15 07:49:03;;;;;;;21.93;15.73;;;17.20;99.90;;;;;;5049490;28;20204;-33
2022/09/15 07:51:30;;;;;;;18.83;15.60;;;17.20;99.90;;;;;;5051232;28;20724;-34
2022/09/15 07:53:58;;;;;;;23.10;15.20;;;17.30;99.90;;;;;;5048977;28;20226;-34
2022/09/15 07:56:25;;;;;;;25.80;15.50;;;17.30;99.90;;;;;;5064953;28;20342;-34
2022/09/15 07:58:52;;;;;;;21.37;15.73;;;17.40;99.90;;;;;;5060880;28;20235;-34
2022/09/15 08:01:26;;;;;;;20.23;16.00;;;17.40;99.90;;;;;;5051599;28;20298;-34
2022/09/15 08:03:53;;;;;;;18.13;13.80;;;17.40;99.90;;;;;;5057875;28;20212;-34
2022/09/15 08:06:25;;;;;;;19.10;14.03;;;17.50;99.90;;;;;;5064925;28;20269;-34
2022/09/15 08:08:52;;;;;;;19.10;14.83;;;17.60;99.90;;;;;;5064708;28;20200;-34
2022/09/15 08:11:26;;;;;;;19.70;14.67;;;17.60;99.90;;;;;;5062948;28;20631;-34
2022/09/15 08:13:53;;;;;;;19.90;14.80;;;17.70;99.90;;;;;;5051441;28;20208;-34
2022/09/15 08:16:22;;;;;;;25.97;16.37;;;17.70;99.90;;;;;;5061268;28;20223;-34
2022/09/15 08:18:51;;;;;;;19.83;14.17;;;17.80;99.90;;;;;;5052444;28;20701;-34
2022/09/15 08:21:22;;;;;;;22.17;14.67;;;17.90;99.90;;;;;;5077546;28;20563;-33
2022/09/15 08:23:58;;;;;;;18.13;14.67;;;17.80;99.90;;;;;;5068974;28;20202;-33
2022/09/15 08:26:26;;;;;;;20.33;14.17;;;17.90;99.90;;;;;;5062399;28;20219;-33
2022/09/15 08:28:56;;;;;;;21.63;14.93;;;18.00;99.90;;;;;;5057923;28;20682;-33
2022/09/15 08:31:26;;;;;;;18.30;13.37;;;18.00;99.90;;;;;;5066352;28;20745;-33
2022/09/15 08:33:56;;;;;;;20.40;13.80;;;18.10;99.90;;;;;;5064790;28;20219;-33
2022/09/15 08:36:26;;;;;;;19.30;13.67;;;18.20;99.90;;;;;;5053762;28;20238;-33
2022/09/15 08:38:56;;;;;;;17.60;13.13;;;18.20;99.90;;;;;;5064415;28;20212;-33
2022/09/15 08:41:31;;;;;;;19.00;13.47;;;18.30;99.90;;;;;;5049469;28;20211;-33
2022/09/15 08:44:16;;;;;;;16.03;11.80;;;18.40;99.90;;;;;;5067763;28;20570;-35
2022/09/15 08:47:05;;;;;;;17.57;12.50;;;18.40;99.90;;;;;;5065752;28;20311;-34
2022/09/15 08:49:57;;;;;;;17.27;11.77;;;18.50;99.90;;;;;;5066930;28;20590;-34
2022/09/15 08:52:36;;;;;;;23.97;12.87;;;18.60;99.90;;;;;;5065639;28;20207;-33
2022/09/15 08:55:12;;;;;;;15.93;11.60;;;18.60;99.90;;;;;;5063932;28;20307;-33
2022/09/15 08:57:39;;;;;;;13.77;10.50;;;18.70;99.90;;;;;;5059963;28;20231;-34
2022/09/15 09:00:13;;;;;;;14.80;10.40;;;18.70;99.90;;;;;;5066144;28;20203;-34
2022/09/15 09:02:43;;;;;;;13.73;10.60;;;18.80;99.90;;;;;;5065548;28;20367;-34
2022/09/15 09:05:16;;;;;;;14.27;10.67;;;18.80;99.90;;;;;;5066364;28;20675;-33
2022/09/15 09:07:50;;;;;;;12.53;10.40;;;18.90;99.90;;;;;;5050278;28;20307;-33
2022/09/15 09:10:34;;;;;;;13.70;10.57;;;18.90;99.90;;;;;;5054243;28;20200;-33
2022/09/15 09:13:20;;;;;;;15.23;9.87;;;19.00;99.90;;;;;;5065843;28;20597;-33
2022/09/15 09:16:25;;;;;;;16.63;11.07;;;19.00;99.90;;;;;;5072145;28;20223;-33
2022/09/15 09:19:10;;;;;;;13.53;10.63;;;19.00;99.90;;;;;;5052473;28;20211;-33
2022/09/15 09:21:43;;;;;;;11.43;9.43;;;19.10;99.90;;;;;;5062803;28;20209;-33
2022/09/15 09:24:38;;;;;;;11.60;9.27;;;19.10;99.90;;;;;;5073527;28;20208;-34
2022/09/15 09:27:17;;;;;;;13.23;8.70;;;19.20;99.90;;;;;;5053341;28;20222;-33
2022/09/15 09:29:52;;;;;;;11.20;8.47;;;19.30;99.90;;;;;;5055314;28;20211;-33
2022/09/15 09:32:29;;;;;;;12.40;8.03;;;19.30;99.90;;;;;;5070206;28;20237;-33
2022/09/15 09:35:02;;;;;;;10.50;8.30;;;19.30;99.90;;;;;;5070384;28;20755;-33
2022/09/15 09:37:31;;;;;;;14.70;9.10;;;19.30;99.90;;;;;;5065820;28;20658;-33
2022/09/15 09:40:03;;;;;;;12.20;8.80;;;19.30;99.90;;;;;;5071541;28;20442;-32
2022/09/15 09:42:36;;;;;;;13.57;9.00;;;19.40;99.90;;;;;;5052250;28;20265;-33
2022/09/15 09:45:10;;;;;;;11.27;8.37;;;19.40;99.90;;;;;;5051872;28;20212;-33
2022/09/15 09:47:43;;;;;;;8.67;6.83;;;19.40;99.90;;;;;;5054497;28;20229;-33
2022/09/15 09:50:40;;;;;;;10.30;6.30;;;19.50;99.90;;;;;;5052608;28;20600;-33
2022/09/15 09:53:27;;;;;;;8.77;6.87;;;19.50;99.90;;;;;;5052773;28;20199;-33
2022/09/15 09:56:21;;;;;;;10.13;8.20;;;19.60;99.90;;;;;;5056604;28;20260;-33
2022/09/15 09:58:48;;;;;;;11.30;7.37;;;19.60;99.90;;;;;;5069429;28;20227;-33
2022/09/15 10:01:19;;;;;;;10.93;6.67;;;19.60;99.90;;;;;;5062916;28;20575;-32
2022/09/15 10:03:48;;;;;;;11.55;6.68;;;19.70;99.90;;;;;;5062187;28;20470;-32
2022/09/15 10:06:28;;;;;;;10.27;5.50;;;19.80;99.90;;;;;;5069712;28;20200;-33
2022/09/15 10:09:02;;;;;;;6.50;4.50;;;19.90;99.90;;;;;;5066870;28;20241;-33
2022/09/15 10:11:50;;;;;;;6.03;3.90;;;19.90;99.90;;;;;;5060514;28;20239;-33
2022/09/15 10:14:39;;;;;;;9.10;5.17;;;19.90;99.90;;;;;;5054070;28;20273;-32
2022/09/15 10:17:37;;;;;;;8.77;4.97;;;19.90;99.90;;;;;;5056398;28;20208;-33
2022/09/15 10:20:41;;;;;;;8.35;5.20;;;19.90;99.90;;;;;;5055356;28;20281;-33
2022/09/15 10:23:13;;;;;;;8.38;4.28;;;20.00;99.90;;;;;;5053115;28;20246;-33
2022/09/15 10:25:41;;;;;;;9.32;5.68;;;20.00;99.90;;;;;;5049396;28;20200;-34
2022/09/15 10:28:27;;;;;;;7.33;4.97;;;20.10;99.90;;;;;;5063277;28;20298;-35
2022/09/15 10:31:09;;;;;;;8.98;4.88;;;20.10;99.90;;;;;;5067378;28;20215;-34
2022/09/15 10:33:46;;;;;;;8.07;4.53;;;20.10;99.90;;;;;;5064651;28;20307;-34
2022/09/15 10:36:18;;;;;;;8.50;4.30;;;20.20;99.90;;;;;;5053027;28;20219;-34
2022/09/15 10:38:57;;;;;;;7.03;4.35;;;20.20;99.90;;;;;;5066275;28;20220;-34
2022/09/15 10:41:26;;;;;;;6.03;4.07;;;20.20;99.90;;;;;;5056338;28;20205;-34
2022/09/15 10:44:24;;;;;;;7.07;3.83;;;20.30;99.90;;;;;;5069038;28;20940;-34
2022/09/15 10:47:12;;;;;;;8.83;3.93;;;20.30;99.90;;;;;;5048772;28;20227;-34
2022/09/15 10:50:14;;;;;;;5.77;3.53;;;20.30;99.90;;;;;;5061273;28;20337;-33
2022/09/15 10:53:03;;;;;;;8.52;3.78;;;20.30;99.90;;;;;;5044001;28;20214;-33
2022/09/15 10:55:54;;;;;;;11.05;3.63;;;20.30;99.90;;;;;;5048978;28;20258;-34
2022/09/15 10:59:11;;;;;;;4.87;3.43;;;20.30;99.90;;;;;;5047270;28;20235;-33
2022/09/15 11:02:02;;;;;;;5.05;3.20;;;20.30;99.90;;;;;;5063700;28;20207;-33
2022/09/15 11:04:48;;;;;;;6.37;2.80;;;20.30;99.90;;;;;;5048486;28;20705;-34
2022/09/15 11:07:37;;;;;;;7.57;2.50;;;20.40;99.90;;;;;;5051291;28;20231;-34
2022/09/15 11:10:13;;;;;;;4.68;2.20;;;20.40;99.90;;;;;;5049733;28;20205;-33
2022/09/15 11:13:10;;;;;;;4.70;2.47;;;20.40;99.90;;;;;;5058387;28;20323;-33
2022/09/15 11:16:07;;;;;;;7.67;3.10;;;20.40;99.90;;;;;;5064287;28;20261;-33
2022/09/15 11:18:56;;;;;;;3.63;2.25;;;20.40;99.90;;;;;;5054032;28;20234;-33
2022/09/15 11:21:41;;;;;;;2.28;1.90;;;20.30;99.90;;;;;;5048931;28;20200;-33
2022/09/15 11:24:36;;;;;;;4.95;2.28;;;20.30;99.90;;;;;;5059819;28;20559;-33
2022/09/15 11:27:28;;;;;;;4.70;2.03;;;20.20;99.90;;;;;;5057122;28;20828;-33
2022/09/15 11:30:18;;;;;;;4.50;2.23;;;20.10;99.90;;;;;;5073697;28;20192;-33
2022/09/15 11:33:01;;;;;;;6.03;2.47;;;20.00;99.90;;;;;;5059794;28;20207;-33
2022/09/15 11:35:58;;;;;;;5.53;2.17;;;20.00;99.90;;;;;;5065895;28;20219;-33
2022/09/15 11:38:36;;;;;;;7.77;2.73;;;20.00;99.90;;;;;;5067995;28;20571;-33
2022/09/15 11:41:18;;;;;;;5.93;2.83;;;19.90;99.90;;;;;;5062903;28;20641;-32
2022/09/15 11:44:06;;;;;;;5.23;2.53;;;19.80;99.90;;;;;;5050329;28;20211;-33
2022/09/15 11:47:30;;;;;;;3.83;2.40;;;19.80;99.90;;;;;;5060470;28;20533;-33
2022/09/15 11:50:23;;;;;;;2.90;2.30;;;19.80;99.90;;;;;;5064348;28;20331;-33
2022/09/15 11:53:15;;;;;;;3.53;2.60;;;19.80;99.90;;;;;;5047836;28;20210;-33
2022/09/15 11:55:59;;;;;;;5.35;2.75;;;19.80;99.90;;;;;;5058102;28;20277;-33
2022/09/15 11:58:29;;;;;;;2.45;2.03;;;19.80;99.90;;;;;;5052839;28;20231;-33
2022/09/15 12:01:26;;;;;;;5.80;2.37;;;19.70;99.90;;;;;;5062527;28;20197;-33
2022/09/15 12:04:07;;;;;;;4.47;2.30;;;19.70;99.90;;;;;;5062837;28;20218;-33
2022/09/15 12:06:54;;;;;;;6.00;2.33;;;19.70;99.90;;;;;;5059960;28;20216;-33
2022/09/15 12:09:21;;;;;;;3.80;2.07;;;19.60;99.90;;;;;;5047156;28;20754;-33
2022/09/15 12:11:55;;;;;;;7.47;1.90;;;19.60;99.90;;;;;;5047643;28;20243;-33
2022/09/15 12:14:38;;;;;;;4.80;1.60;;;19.50;99.90;;;;;;5046095;28;20216;-33
2022/09/15 12:17:10;;;;;;;2.73;1.60;;;19.40;99.90;;;;;;5075125;28;20583;-33
2022/09/15 12:19:50;;;;;;;5.20;1.50;;;19.40;99.90;;;;;;5053165;28;20214;-33
2022/09/15 12:22:33;;;;;;;2.77;1.30;;;19.40;99.90;;;;;;5047088;28;20672;-33
2022/09/15 12:25:30;;;;;;;3.70;1.13;;;19.40;99.90;;;;;;5048192;28;20208;-33
2022/09/15 12:28:23;;;;;;;7.73;1.50;;;19.40;99.90;;;;;;5065698;28;20686;-33
2022/09/15 12:31:16;;;;;;;3.50;1.33;;;19.30;99.90;;;;;;5062304;28;20211;-35
2022/09/15 12:33:46;;;;;;;4.53;1.10;;;19.30;99.90;;;;;;5064553;28;20222;-33
2022/09/15 12:36:39;;;;;;;3.53;1.00;;;19.30;99.90;;;;;;5062292;28;20227;-33
2022/09/15 12:39:24;;;;;;;4.10;1.10;;;19.20;99.90;;;;;;5066597;28;20637;-34
2022/09/15 12:42:25;;;;;;;1.70;0.90;;;19.30;99.90;;;;;;5061834;28;20219;-34
2022/09/15 12:45:18;;;;;;;4.77;1.60;;;19.20;99.90;;;;;;5058757;28;20213;-33
2022/09/15 12:48:00;;;;;;;3.83;1.00;;;19.30;99.90;;;;;;5066337;28;20589;-33
2022/09/15 12:50:41;;;;;;;2.80;1.20;;;19.40;99.90;;;;;;5063257;28;20674;-34
2022/09/15 12:53:23;;;;;;;4.40;1.17;;;19.40;99.90;;;;;;5053682;28;20247;-34
2022/09/15 12:55:57;;;;;;;3.53;1.00;;;19.50;99.90;;;;;;5055593;28;20227;-33
2022/09/15 12:58:40;;;;;;;5.10;0.90;;;19.50;99.90;;;;;;5064864;28;20323;-34
2022/09/15 13:01:25;;;;;;;5.50;1.13;;;19.50;99.90;;;;;;5063318;28;20211;-34
2022/09/15 13:03:58;;;;;;;6.60;1.07;;;19.50;99.90;;;;;;5064339;28;20200;-33
2022/09/15 13:06:31;;;;;;;2.20;1.00;;;19.50;99.90;;;;;;5047757;28;20629;-34
2022/09/15 13:09:04;;;;;;;3.00;0.93;;;19.50;99.90;;;;;;5062259;28;20220;-33
2022/09/15 13:11:39;;;;;;;2.53;0.70;;;19.40;99.90;;;;;;5057297;28;20203;-34
2022/09/15 13:14:25;;;;;;;3.77;0.80;;;19.40;99.90;;;;;;5066452;28;20210;-34
2022/09/15 13:17:12;;;;;;;3.10;0.70;;;19.30;99.90;;;;;;5066236;28;20219;-33
2022/09/15 13:19:50;;;;;;;4.57;1.00;;;19.30;99.90;;;;;;5064444;28;20204;-35